sensor_id;sensor_type;location;lat;lon;timestamp;pressure;altitude;pressure_sealevel;temperature;humidity
35918;BME280;22011;59.912;30.300;2022-12-29T00:00:55;101081.69;;;1.64;66.65
35918;BME280;22011;59.912;30.300;2022-12-29T00:03:23;101082.53;;;1.65;66.46
35918;BME280;22011;59.912;30.300;2022-12-29T00:05:55;101082.97;;;1.72;66.32
35918;BME280;22011;59.912;30.300;2022-12-29T00:08:23;101083.38;;;1.66;65.38
35918;BME280;22011;59.912;30.300;2022-12-29T00:11:05;101086.53;;;1.71;65.29
35918;BME280;22011;59.912;30.300;2022-12-29T00:13:33;101084.88;;;1.70;65.82
35918;BME280;22011;59.912;30.300;2022-12-29T00:16:18;101090.13;;;1.70;66.14
35918;BME280;22011;59.912;30.300;2022-12-29T00:18:46;101097.25;;;1.68;65.81
35918;BME280;22011;59.912;30.300;2022-12-29T00:21:17;101100.41;;;1.73;66.55
35918;BME280;22011;59.912;30.300;2022-12-29T00:24:02;101097.44;;;1.64;65.73
35918;BME280;22011;59.912;30.300;2022-12-29T00:26:48;101100.91;;;1.65;66.36
35918;BME280;22011;59.912;30.300;2022-12-29T00:29:39;101099.13;;;1.66;65.46
35918;BME280;22011;59.912;30.300;2022-12-29T00:32:24;101101.88;;;1.64;66.34
35918;BME280;22011;59.912;30.300;2022-12-29T00:35:12;101102.31;;;1.71;66.12
35918;BME280;22011;59.912;30.300;2022-12-29T00:37:43;101105.78;;;1.71;66.14
35918;BME280;22011;59.912;30.300;2022-12-29T00:40:30;101103.75;;;1.62;65.93
35918;BME280;22011;59.912;30.300;2022-12-29T00:43:15;101111.19;;;1.55;66.04
35918;BME280;22011;59.912;30.300;2022-12-29T00:46:01;101110.72;;;1.49;66.10
35918;BME280;22011;59.912;30.300;2022-12-29T00:48:30;101116.91;;;1.48;66.64
35918;BME280;22011;59.912;30.300;2022-12-29T00:51:14;101117.47;;;1.53;65.84
35918;BME280;22011;59.912;30.300;2022-12-29T00:53:43;101121.47;;;1.58;65.90
35918;BME280;22011;59.912;30.300;2022-12-29T00:56:11;101119.06;;;1.55;65.95
35918;BME280;22011;59.912;30.300;2022-12-29T00:58:38;101117.06;;;1.59;66.40
35918;BME280;22011;59.912;30.300;2022-12-29T01:01:14;101119.00;;;1.70;65.64
35918;BME280;22011;59.912;30.300;2022-12-29T01:03:47;101115.28;;;1.59;64.66
35918;BME280;22011;59.912;30.300;2022-12-29T01:06:14;101110.78;;;1.61;64.68
35918;BME280;22011;59.912;30.300;2022-12-29T01:08:43;101113.09;;;1.66;65.11
35918;BME280;22011;59.912;30.300;2022-12-29T01:11:12;101110.47;;;1.66;65.48
35918;BME280;22011;59.912;30.300;2022-12-29T01:13:39;101111.53;;;1.63;64.54
35918;BME280;22011;59.912;30.300;2022-12-29T01:16:07;101096.72;;;1.62;64.14
35918;BME280;22011;59.912;30.300;2022-12-29T01:18:34;101102.91;;;1.61;64.50
35918;BME280;22011;59.912;30.300;2022-12-29T01:21:04;101098.28;;;1.65;65.98
35918;BME280;22011;59.912;30.300;2022-12-29T01:23:32;101104.69;;;1.61;66.12
35918;BME280;22011;59.912;30.300;2022-12-29T01:26:09;101106.53;;;1.73;66.87
35918;BME280;22011;59.912;30.300;2022-12-29T01:28:37;101108.34;;;1.58;66.37
35918;BME280;22011;59.912;30.300;2022-12-29T01:31:06;101115.28;;;1.59;65.76
35918;BME280;22011;59.912;30.300;2022-12-29T01:33:33;101113.59;;;1.58;65.88
35918;BME280;22011;59.912;30.300;2022-12-29T01:36:01;101116.63;;;1.52;65.06
35918;BME280;22011;59.912;30.300;2022-12-29T01:38:29;101116.72;;;1.51;65.04
35918;BME280;22011;59.912;30.300;2022-12-29T01:40:57;101120.09;;;1.53;65.96
35918;BME280;22011;59.912;30.300;2022-12-29T01:43:39;101122.38;;;1.72;65.65
35918;BME280;22011;59.912;30.300;2022-12-29T01:46:14;101117.44;;;1.67;65.82
35918;BME280;22011;59.912;30.300;2022-12-29T01:48:43;101111.81;;;1.59;64.76
35918;BME280;22011;59.912;30.300;2022-12-29T01:51:12;101104.69;;;1.61;64.52
35918;BME280;22011;59.912;30.300;2022-12-29T01:53:40;101117.53;;;1.66;65.28
35918;BME280;22011;59.912;30.300;2022-12-29T01:56:12;101122.19;;;1.75;65.72
35918;BME280;22011;59.912;30.300;2022-12-29T01:58:48;101109.44;;;1.69;65.84
35918;BME280;22011;59.912;30.300;2022-12-29T02:01:17;101119.31;;;1.65;65.14
35918;BME280;22011;59.912;30.300;2022-12-29T02:03:46;101118.47;;;1.64;65.32
35918;BME280;22011;59.912;30.300;2022-12-29T02:06:17;101121.00;;;1.66;65.72
35918;BME280;22011;59.912;30.300;2022-12-29T02:08:46;101122.22;;;1.60;65.13
35918;BME280;22011;59.912;30.300;2022-12-29T02:11:16;101123.81;;;1.63;65.82
35918;BME280;22011;59.912;30.300;2022-12-29T02:13:45;101122.13;;;1.62;64.76
35918;BME280;22011;59.912;30.300;2022-12-29T02:16:25;101123.53;;;1.68;64.77
35918;BME280;22011;59.912;30.300;2022-12-29T02:19:07;101128.78;;;1.68;64.71
35918;BME280;22011;59.912;30.300;2022-12-29T02:22:04;101128.47;;;1.72;65.00
35918;BME280;22011;59.912;30.300;2022-12-29T02:25:10;101123.88;;;1.76;64.63
35918;BME280;22011;59.912;30.300;2022-12-29T02:27:57;101123.31;;;1.71;64.84
35918;BME280;22011;59.912;30.300;2022-12-29T02:30:43;101126.03;;;1.69;64.39
35918;BME280;22011;59.912;30.300;2022-12-29T02:33:21;101123.81;;;1.63;64.27
35918;BME280;22011;59.912;30.300;2022-12-29T02:35:55;101129.16;;;1.61;64.56
35918;BME280;22011;59.912;30.300;2022-12-29T02:38:33;101126.53;;;1.61;64.04
35918;BME280;22011;59.912;30.300;2022-12-29T02:41:07;101131.06;;;1.59;64.71
35918;BME280;22011;59.912;30.300;2022-12-29T02:43:39;101122.44;;;1.57;64.22
35918;BME280;22011;59.912;30.300;2022-12-29T02:46:16;101127.69;;;1.57;63.86
35918;BME280;22011;59.912;30.300;2022-12-29T02:48:51;101122.22;;;1.60;63.45
35918;BME280;22011;59.912;30.300;2022-12-29T02:51:24;101121.94;;;1.65;63.71
35918;BME280;22011;59.912;30.300;2022-12-29T02:53:54;101123.91;;;1.61;64.25
35918;BME280;22011;59.912;30.300;2022-12-29T02:56:41;101115.38;;;1.58;64.14
35918;BME280;22011;59.912;30.300;2022-12-29T02:59:08;101122.63;;;1.54;64.37
35918;BME280;22011;59.912;30.300;2022-12-29T03:01:49;101129.91;;;1.63;65.09
35918;BME280;22011;59.912;30.300;2022-12-29T03:04:43;101132.09;;;1.57;64.46
35918;BME280;22011;59.912;30.300;2022-12-29T03:07:20;101132.72;;;1.60;64.20
35918;BME280;22011;59.912;30.300;2022-12-29T03:09:58;101135.25;;;1.62;64.23
35918;BME280;22011;59.912;30.300;2022-12-29T03:12:31;101134.72;;;1.57;64.07
35918;BME280;22011;59.912;30.300;2022-12-29T03:15:22;101140.50;;;1.62;64.28
35918;BME280;22011;59.912;30.300;2022-12-29T03:18:14;101142.50;;;1.58;64.38
35918;BME280;22011;59.912;30.300;2022-12-29T03:20:48;101141.00;;;1.54;63.91
35918;BME280;22011;59.912;30.300;2022-12-29T03:23:19;101136.03;;;1.50;63.98
35918;BME280;22011;59.912;30.300;2022-12-29T03:25:50;101133.88;;;1.56;62.79
35918;BME280;22011;59.912;30.300;2022-12-29T03:28:24;101139.88;;;1.58;63.23
35918;BME280;22011;59.912;30.300;2022-12-29T03:30:55;101138.69;;;1.50;63.04
35918;BME280;22011;59.912;30.300;2022-12-29T03:33:27;101134.28;;;1.77;63.84
35918;BME280;22011;59.912;30.300;2022-12-29T03:36:00;101132.72;;;1.60;61.82
35918;BME280;22011;59.912;30.300;2022-12-29T03:38:34;101129.06;;;1.63;62.88
35918;BME280;22011;59.912;30.300;2022-12-29T03:41:06;101141.75;;;1.56;62.93
35918;BME280;22011;59.912;30.300;2022-12-29T03:43:35;101132.47;;;1.51;61.41
35918;BME280;22011;59.912;30.300;2022-12-29T03:46:02;101132.38;;;1.52;61.20
35918;BME280;22011;59.912;30.300;2022-12-29T03:48:31;101135.75;;;1.54;61.25
35918;BME280;22011;59.912;30.300;2022-12-29T03:50:59;101134.25;;;1.50;62.57
35918;BME280;22011;59.912;30.300;2022-12-29T03:53:27;101131.09;;;1.45;62.96
35918;BME280;22011;59.912;30.300;2022-12-29T03:55:55;101120.59;;;1.45;62.41
35918;BME280;22011;59.912;30.300;2022-12-29T03:58:23;101130.06;;;1.48;63.10
35918;BME280;22011;59.912;30.300;2022-12-29T04:01:05;101129.94;;;1.49;62.33
35918;BME280;22011;59.912;30.300;2022-12-29T04:03:37;101131.84;;;1.47;63.45
35918;BME280;22011;59.912;30.300;2022-12-29T04:06:05;101128.47;;;1.45;63.04
35918;BME280;22011;59.912;30.300;2022-12-29T04:08:39;101134.25;;;1.50;62.84
35918;BME280;22011;59.912;30.300;2022-12-29T04:11:07;101129.94;;;1.49;63.12
35918;BME280;22011;59.912;30.300;2022-12-29T04:13:34;101122.91;;;1.50;63.21
35918;BME280;22011;59.912;30.300;2022-12-29T04:16:02;101126.38;;;1.50;63.37
35918;BME280;22011;59.912;30.300;2022-12-29T04:18:29;101124.91;;;1.46;63.77
35918;BME280;22011;59.912;30.300;2022-12-29T04:20:58;101127.44;;;1.48;63.94
35918;BME280;22011;59.912;30.300;2022-12-29T04:23:33;101133.53;;;1.48;63.45
35918;BME280;22011;59.912;30.300;2022-12-29T04:26:03;101134.34;;;1.49;63.66
35918;BME280;22011;59.912;30.300;2022-12-29T04:28:31;101130.50;;;1.54;62.33
35918;BME280;22011;59.912;30.300;2022-12-29T04:31:23;101138.28;;;1.56;62.30
35918;BME280;22011;59.912;30.300;2022-12-29T04:33:51;101135.00;;;1.52;63.32
35918;BME280;22011;59.912;30.300;2022-12-29T04:36:20;101129.84;;;1.51;62.64
35918;BME280;22011;59.912;30.300;2022-12-29T04:38:48;101132.47;;;1.51;62.72
35918;BME280;22011;59.912;30.300;2022-12-29T04:41:16;101134.81;;;1.55;62.46
35918;BME280;22011;59.912;30.300;2022-12-29T04:43:43;101136.09;;;1.62;63.09
35918;BME280;22011;59.912;30.300;2022-12-29T04:46:13;101135.91;;;1.66;62.77
35918;BME280;22011;59.912;30.300;2022-12-29T04:48:51;101131.50;;;1.66;63.12
35918;BME280;22011;59.912;30.300;2022-12-29T04:51:46;101137.28;;;1.71;63.21
35918;BME280;22011;59.912;30.300;2022-12-29T04:54:15;101135.06;;;1.92;63.49
35918;BME280;22011;59.912;30.300;2022-12-29T04:56:47;101142.75;;;1.68;61.63
35918;BME280;22011;59.912;30.300;2022-12-29T04:59:16;101139.47;;;1.64;62.57
35918;BME280;22011;59.912;30.300;2022-12-29T05:01:47;101144.09;;;1.61;63.12
35918;BME280;22011;59.912;30.300;2022-12-29T05:04:15;101137.25;;;1.58;63.65
35918;BME280;22011;59.912;30.300;2022-12-29T05:06:43;101136.31;;;1.59;63.24
35918;BME280;22011;59.912;30.300;2022-12-29T05:09:12;101131.91;;;1.60;63.37
35918;BME280;22011;59.912;30.300;2022-12-29T05:11:40;101132.63;;;1.62;62.71
35918;BME280;22011;59.912;30.300;2022-12-29T05:14:09;101132.34;;;1.67;63.02
35918;BME280;22011;59.912;30.300;2022-12-29T05:16:37;101132.34;;;1.67;63.86
35918;BME280;22011;59.912;30.300;2022-12-29T05:19:05;101143.13;;;1.62;63.03
35918;BME280;22011;59.912;30.300;2022-12-29T05:21:33;101137.78;;;1.63;63.13
35918;BME280;22011;59.912;30.300;2022-12-29T05:24:01;101143.88;;;1.64;63.69
35918;BME280;22011;59.912;30.300;2022-12-29T05:26:30;101149.78;;;1.68;63.90
35918;BME280;22011;59.912;30.300;2022-12-29T05:29:09;101142.19;;;1.63;63.64
35918;BME280;22011;59.912;30.300;2022-12-29T05:31:37;101143.78;;;1.66;64.56
35918;BME280;22011;59.912;30.300;2022-12-29T05:34:06;101145.06;;;1.73;62.38
35918;BME280;22011;59.912;30.300;2022-12-29T05:36:34;101149.59;;;1.71;62.48
35918;BME280;22011;59.912;30.300;2022-12-29T05:39:02;101139.81;;;1.73;62.00
35918;BME280;22011;59.912;30.300;2022-12-29T05:41:31;101143.19;;;1.75;62.10
35918;BME280;22011;59.912;30.300;2022-12-29T05:43:59;101143.19;;;1.75;62.02
35918;BME280;22011;59.912;30.300;2022-12-29T05:46:42;101138.69;;;1.77;62.61
35918;BME280;22011;59.912;30.300;2022-12-29T05:49:15;101145.28;;;1.70;62.58
35918;BME280;22011;59.912;30.300;2022-12-29T05:51:58;101150.81;;;1.65;61.91
35918;BME280;22011;59.912;30.300;2022-12-29T05:54:27;101144.94;;;1.61;62.23
35918;BME280;22011;59.912;30.300;2022-12-29T05:56:58;101148.28;;;1.63;62.41
35918;BME280;22011;59.912;30.300;2022-12-29T05:59:25;101147.56;;;1.61;62.88
35918;BME280;22011;59.912;30.300;2022-12-29T06:01:55;101150.19;;;1.61;62.01
35918;BME280;22011;59.912;30.300;2022-12-29T06:04:22;101150.91;;;1.63;62.05
35918;BME280;22011;59.912;30.300;2022-12-29T06:06:50;101154.41;;;1.64;62.98
35918;BME280;22011;59.912;30.300;2022-12-29T06:09:23;101151.88;;;1.62;62.53
35918;BME280;22011;59.912;30.300;2022-12-29T06:11:53;101151.13;;;1.60;62.71
35918;BME280;22011;59.912;30.300;2022-12-29T06:14:22;101163.22;;;1.63;62.92
35918;BME280;22011;59.912;30.300;2022-12-29T06:16:49;101159.09;;;1.59;62.35
35918;BME280;22011;59.912;30.300;2022-12-29T06:19:17;101162.38;;;1.62;63.21
35918;BME280;22011;59.912;30.300;2022-12-29T06:21:44;101150.38;;;1.58;63.52
35918;BME280;22011;59.912;30.300;2022-12-29T06:24:12;101158.44;;;1.55;63.38
35918;BME280;22011;59.912;30.300;2022-12-29T06:26:40;101163.78;;;1.54;62.85
35918;BME280;22011;59.912;30.300;2022-12-29T06:29:08;101155.72;;;1.57;62.58
35918;BME280;22011;59.912;30.300;2022-12-29T06:31:37;101153.00;;;1.58;63.10
35918;BME280;22011;59.912;30.300;2022-12-29T06:34:04;101159.38;;;1.54;62.76
35918;BME280;22011;59.912;30.300;2022-12-29T06:36:32;101164.63;;;1.54;63.11
35918;BME280;22011;59.912;30.300;2022-12-29T06:38:59;101151.41;;;1.56;63.51
35918;BME280;22011;59.912;30.300;2022-12-29T06:41:27;101143.63;;;1.54;64.08
35918;BME280;22011;59.912;30.300;2022-12-29T06:44:21;101153.38;;;1.52;63.90
35918;BME280;22011;59.912;30.300;2022-12-29T06:46:52;101151.50;;;1.54;63.82
35918;BME280;22011;59.912;30.300;2022-12-29T06:49:19;101155.06;;;1.53;63.51
35918;BME280;22011;59.912;30.300;2022-12-29T06:51:47;101155.81;;;1.55;63.76
35918;BME280;22011;59.912;30.300;2022-12-29T06:54:14;101147.84;;;1.57;64.11
35918;BME280;22011;59.912;30.300;2022-12-29T06:56:42;101163.41;;;1.60;63.20
35918;BME280;22011;59.912;30.300;2022-12-29T06:59:10;101153.94;;;1.57;63.14
35918;BME280;22011;59.912;30.300;2022-12-29T07:01:37;101155.06;;;1.53;63.57
35918;BME280;22011;59.912;30.300;2022-12-29T07:04:06;101157.91;;;1.50;63.24
35918;BME280;22011;59.912;30.300;2022-12-29T07:06:34;101157.44;;;1.44;63.31
35918;BME280;22011;59.912;30.300;2022-12-29T07:09:01;101158.38;;;1.43;64.53
35918;BME280;22011;59.912;30.300;2022-12-29T07:11:29;101162.25;;;1.37;64.63
35918;BME280;22011;59.912;30.300;2022-12-29T07:13:56;101164.31;;;1.32;64.39
35918;BME280;22011;59.912;30.300;2022-12-29T07:16:24;101161.13;;;1.27;64.17
35918;BME280;22011;59.912;30.300;2022-12-29T07:18:51;101157.56;;;1.28;64.26
35918;BME280;22011;59.912;30.300;2022-12-29T07:21:20;101162.16;;;1.24;65.01
35918;BME280;22011;59.912;30.300;2022-12-29T07:23:48;101170.13;;;1.23;65.75
35918;BME280;22011;59.912;30.300;2022-12-29T07:26:15;101176.22;;;1.23;65.45
35918;BME280;22011;59.912;30.300;2022-12-29T07:28:44;101186.63;;;1.25;66.13
35918;BME280;22011;59.912;30.300;2022-12-29T07:31:13;101189.25;;;1.25;66.15
35918;BME280;22011;59.912;30.300;2022-12-29T07:33:41;101175.47;;;1.21;66.16
35918;BME280;22011;59.912;30.300;2022-12-29T07:36:09;101182.41;;;1.22;66.08
35918;BME280;22011;59.912;30.300;2022-12-29T07:38:39;101183.81;;;1.28;65.99
35918;BME280;22011;59.912;30.300;2022-12-29T07:41:06;101187.38;;;1.27;65.85
35918;BME280;22011;59.912;30.300;2022-12-29T07:43:34;101196.84;;;1.29;66.31
35918;BME280;22011;59.912;30.300;2022-12-29T07:46:22;101203.88;;;1.29;66.03
35918;BME280;22011;59.912;30.300;2022-12-29T07:48:50;101205.66;;;1.28;66.68
35918;BME280;22011;59.912;30.300;2022-12-29T07:51:17;101202.28;;;1.26;66.69
35918;BME280;22011;59.912;30.300;2022-12-29T07:53:46;101199.56;;;1.28;66.32
35918;BME280;22011;59.912;30.300;2022-12-29T07:56:14;101201.44;;;1.26;66.35
35918;BME280;22011;59.912;30.300;2022-12-29T07:58:41;101196.19;;;1.26;66.33
35918;BME280;22011;59.912;30.300;2022-12-29T08:01:09;101178.00;;;1.23;66.98
35918;BME280;22011;59.912;30.300;2022-12-29T08:03:36;101178.94;;;1.22;66.92
35918;BME280;22011;59.912;30.300;2022-12-29T08:06:09;101178.66;;;1.26;66.81
35918;BME280;22011;59.912;30.300;2022-12-29T08:08:36;101175.38;;;1.23;66.86
35918;BME280;22011;59.912;30.300;2022-12-29T08:11:05;101180.81;;;1.20;66.93
35918;BME280;22011;59.912;30.300;2022-12-29T08:13:33;101175.75;;;1.17;67.10
35918;BME280;22011;59.912;30.300;2022-12-29T08:16:01;101175.94;;;1.14;67.21
35918;BME280;22011;59.912;30.300;2022-12-29T08:18:28;101178.38;;;1.17;66.88
35918;BME280;22011;59.912;30.300;2022-12-29T08:21:01;101172.00;;;1.21;67.03
35918;BME280;22011;59.912;30.300;2022-12-29T08:23:28;101176.13;;;1.11;66.60
35918;BME280;22011;59.912;30.300;2022-12-29T08:25:57;101174.00;;;1.03;66.92
35918;BME280;22011;59.912;30.300;2022-12-29T08:28:27;101183.09;;;0.97;66.68
35918;BME280;22011;59.912;30.300;2022-12-29T08:30:57;101184.22;;;0.93;66.83
35918;BME280;22011;59.912;30.300;2022-12-29T08:33:25;101182.25;;;0.83;66.82
35918;BME280;22011;59.912;30.300;2022-12-29T08:35:53;101178.22;;;0.77;66.59
35918;BME280;22011;59.912;30.300;2022-12-29T08:38:26;101179.25;;;0.75;67.40
35918;BME280;22011;59.912;30.300;2022-12-29T08:40:54;101176.41;;;0.63;67.35
35918;BME280;22011;59.912;30.300;2022-12-29T08:43:22;101178.38;;;0.60;67.99
35918;BME280;22011;59.912;30.300;2022-12-29T08:45:51;101178.94;;;0.65;68.07
35918;BME280;22011;59.912;30.300;2022-12-29T08:48:18;101181.75;;;0.62;68.21
35918;BME280;22011;59.912;30.300;2022-12-29T08:50:48;101177.44;;;0.61;68.29
35918;BME280;22011;59.912;30.300;2022-12-29T08:53:16;101172.28;;;0.59;68.70
35918;BME280;22011;59.912;30.300;2022-12-29T08:55:45;101177.09;;;0.67;69.39
35918;BME280;22011;59.912;30.300;2022-12-29T08:58:12;101180.91;;;0.61;69.40
35918;BME280;22011;59.912;30.300;2022-12-29T09:00:43;101181.00;;;0.60;69.67
35918;BME280;22011;59.912;30.300;2022-12-29T09:03:12;101186.91;;;0.63;69.34
35918;BME280;22011;59.912;30.300;2022-12-29T09:05:40;101197.22;;;0.67;69.03
35918;BME280;22011;59.912;30.300;2022-12-29T09:08:08;101201.53;;;0.68;69.48
35918;BME280;22011;59.912;30.300;2022-12-29T09:10:35;101202.47;;;0.67;68.88
35918;BME280;22011;59.912;30.300;2022-12-29T09:13:03;101197.22;;;0.67;69.00
35918;BME280;22011;59.912;30.300;2022-12-29T09:15:30;101196.38;;;0.66;69.72
35918;BME280;22011;59.912;30.300;2022-12-29T09:17:58;101196.38;;;0.66;68.89
35918;BME280;22011;59.912;30.300;2022-12-29T09:20:26;101197.88;;;0.70;69.77
35918;BME280;22011;59.912;30.300;2022-12-29T09:22:54;101208.91;;;0.61;69.56
35918;BME280;22011;59.912;30.300;2022-12-29T09:25:21;101211.81;;;0.56;69.28
35918;BME280;22011;59.912;30.300;2022-12-29T09:27:50;101202.34;;;0.54;69.16
35918;BME280;22011;59.912;30.300;2022-12-29T09:30:20;101204.22;;;0.52;69.19
35918;BME280;22011;59.912;30.300;2022-12-29T09:32:48;101207.59;;;0.54;69.02
35918;BME280;22011;59.912;30.300;2022-12-29T09:35:16;101197.19;;;0.52;69.20
35918;BME280;22011;59.912;30.300;2022-12-29T09:37:45;101201.50;;;0.53;69.71
35918;BME280;22011;59.912;30.300;2022-12-29T09:40:25;101202.28;;;0.70;70.21
35918;BME280;22011;59.912;30.300;2022-12-29T09:43:06;101208.09;;;0.75;69.92
35918;BME280;22011;59.912;30.300;2022-12-29T09:45:40;101202.72;;;0.62;70.59
35918;BME280;22011;59.912;30.300;2022-12-29T09:48:14;101192.25;;;0.62;70.52
35918;BME280;22011;59.912;30.300;2022-12-29T09:50:47;101191.50;;;0.60;70.86
35918;BME280;22011;59.912;30.300;2022-12-29T09:53:22;101190.28;;;0.65;70.49
35918;BME280;22011;59.912;30.300;2022-12-29T09:55:55;101194.69;;;0.65;70.09
35918;BME280;22011;59.912;30.300;2022-12-29T09:58:26;101196.38;;;0.66;70.29
35918;BME280;22011;59.912;30.300;2022-12-29T10:01:00;101198.34;;;0.62;70.58
35918;BME280;22011;59.912;30.300;2022-12-29T10:03:40;101197.13;;;0.68;70.68
35918;BME280;22011;59.912;30.300;2022-12-29T10:06:10;101196.03;;;0.86;70.81
35918;BME280;22011;59.912;30.300;2022-12-29T10:08:44;101188.41;;;0.68;70.35
35918;BME280;22011;59.912;30.300;2022-12-29T10:11:27;101190.00;;;0.70;71.12
35918;BME280;22011;59.912;30.300;2022-12-29T10:14:15;101187.38;;;0.70;71.16
35918;BME280;22011;59.912;30.300;2022-12-29T10:16:51;101198.59;;;0.58;70.89
35918;BME280;22011;59.912;30.300;2022-12-29T10:19:49;101196.47;;;0.64;71.67
35918;BME280;22011;59.912;30.300;2022-12-29T10:22:24;101195.22;;;0.56;71.23
35918;BME280;22011;59.912;30.300;2022-12-29T10:24:56;101200.84;;;0.50;70.95
35918;BME280;22011;59.912;30.300;2022-12-29T10:27:24;101201.19;;;0.44;71.22
35918;BME280;22011;59.912;30.300;2022-12-29T10:29:54;101201.00;;;0.47;71.43
35918;BME280;22011;59.912;30.300;2022-12-29T10:32:32;101192.56;;;0.42;71.61
35918;BME280;22011;59.912;30.300;2022-12-29T10:35:05;101188.34;;;0.39;72.03
35918;BME280;22011;59.912;30.300;2022-12-29T10:37:42;101188.00;;;0.45;72.17
35918;BME280;22011;59.912;30.300;2022-12-29T10:40:19;101182.56;;;0.48;72.11
35918;BME280;22011;59.912;30.300;2022-12-29T10:42:52;101181.91;;;0.45;71.87
35918;BME280;22011;59.912;30.300;2022-12-29T10:45:22;101182.09;;;0.42;72.21
35918;BME280;22011;59.912;30.300;2022-12-29T10:47:55;101189.19;;;0.40;71.97
35918;BME280;22011;59.912;30.300;2022-12-29T10:50:26;101185.66;;;0.41;71.70
35918;BME280;22011;59.912;30.300;2022-12-29T10:52:57;101187.41;;;0.40;71.61
35918;BME280;22011;59.912;30.300;2022-12-29T10:55:31;101184.88;;;0.39;71.21
35918;BME280;22011;59.912;30.300;2022-12-29T10:58:02;101184.66;;;0.27;71.39
35918;BME280;22011;59.912;30.300;2022-12-29T11:00:32;101186.53;;;0.25;72.46
35918;BME280;22011;59.912;30.300;2022-12-29T11:03:11;101185.81;;;0.38;71.84
35918;BME280;22011;59.912;30.300;2022-12-29T11:05:46;101175.34;;;0.38;72.07
35918;BME280;22011;59.912;30.300;2022-12-29T11:08:18;101174.00;;;0.30;71.22
35918;BME280;22011;59.912;30.300;2022-12-29T11:10:58;101169.66;;;0.45;71.38
35918;BME280;22011;59.912;30.300;2022-12-29T11:13:27;101180.75;;;0.35;70.54
35918;BME280;22011;59.912;30.300;2022-12-29T11:15:55;101179.25;;;0.30;70.47
35918;BME280;22011;59.912;30.300;2022-12-29T11:18:24;101178.09;;;0.20;71.31
35918;BME280;22011;59.912;30.300;2022-12-29T11:20:53;101186.63;;;0.24;71.53
35918;BME280;22011;59.912;30.300;2022-12-29T11:23:25;101178.84;;;0.22;71.64
35918;BME280;22011;59.912;30.300;2022-12-29T11:26:13;101177.38;;;0.32;72.51
35918;BME280;22011;59.912;30.300;2022-12-29T11:28:43;101183.50;;;0.17;72.25
35918;BME280;22011;59.912;30.300;2022-12-29T11:31:15;101179.59;;;0.24;72.19
35918;BME280;22011;59.912;30.300;2022-12-29T11:33:43;101177.34;;;0.18;71.98
35918;BME280;22011;59.912;30.300;2022-12-29T11:36:15;101172.84;;;0.20;71.75
35918;BME280;22011;59.912;30.300;2022-12-29T11:38:47;101175.81;;;0.14;71.69
35918;BME280;22011;59.912;30.300;2022-12-29T11:41:22;101172.38;;;0.14;71.95
35918;BME280;22011;59.912;30.300;2022-12-29T11:43:51;101164.38;;;0.01;71.70
35918;BME280;22011;59.912;30.300;2022-12-29T11:46:22;101167.19;;;-0.02;71.98
35918;BME280;22011;59.912;30.300;2022-12-29T11:48:51;101165.59;;;-0.05;71.88
35918;BME280;22011;59.912;30.300;2022-12-29T11:51:23;101165.78;;;0.07;72.29
35918;BME280;22011;59.912;30.300;2022-12-29T11:53:55;101159.34;;;0.12;72.07
35918;BME280;22011;59.912;30.300;2022-12-29T11:56:34;101163.03;;;0.24;72.27
35918;BME280;22011;59.912;30.300;2022-12-29T11:59:24;101159.88;;;0.33;71.99
35918;BME280;22011;59.912;30.300;2022-12-29T12:01:52;101153.56;;;0.21;71.33
35918;BME280;22011;59.912;30.300;2022-12-29T12:04:22;101160.25;;;0.27;72.21
35918;BME280;22011;59.912;30.300;2022-12-29T12:06:58;101159.97;;;0.31;71.97
35918;BME280;22011;59.912;30.300;2022-12-29T12:09:31;101156.19;;;0.21;71.42
35918;BME280;22011;59.912;30.300;2022-12-29T12:12:01;101158.91;;;0.20;71.70
35918;BME280;22011;59.912;30.300;2022-12-29T12:14:34;101157.66;;;0.11;72.09
35918;BME280;22011;59.912;30.300;2022-12-29T12:17:23;101160.69;;;0.19;71.92
35918;BME280;22011;59.912;30.300;2022-12-29T12:19:58;101164.91;;;0.22;72.20
35918;BME280;22011;59.912;30.300;2022-12-29T12:22:31;101153.41;;;0.24;72.36
35918;BME280;22011;59.912;30.300;2022-12-29T12:25:03;101148.06;;;0.26;71.79
35918;BME280;22011;59.912;30.300;2022-12-29T12:27:42;101154.16;;;0.26;71.53
35918;BME280;22011;59.912;30.300;2022-12-29T12:30:13;101164.63;;;0.26;71.37
35918;BME280;22011;59.912;30.300;2022-12-29T12:32:46;101162.69;;;0.30;71.96
35918;BME280;22011;59.912;30.300;2022-12-29T12:35:22;101156.59;;;0.29;72.15
35918;BME280;22011;59.912;30.300;2022-12-29T12:38:09;101150.81;;;0.39;72.30
35918;BME280;22011;59.912;30.300;2022-12-29T12:41:07;101143.63;;;0.42;72.50
35918;BME280;22011;59.912;30.300;2022-12-29T12:43:44;101151.84;;;0.36;72.71
35918;BME280;22011;59.912;30.300;2022-12-29T12:46:24;101147.81;;;0.30;72.37
35918;BME280;22011;59.912;30.300;2022-12-29T12:49:21;101146.31;;;0.41;72.73
35918;BME280;22011;59.912;30.300;2022-12-29T12:51:58;101139.56;;;0.37;71.67
35918;BME280;22011;59.912;30.300;2022-12-29T12:54:39;101147.16;;;0.41;71.80
35918;BME280;22011;59.912;30.300;2022-12-29T12:57:15;101140.50;;;0.36;71.77
35918;BME280;22011;59.912;30.300;2022-12-29T12:59:52;101136.03;;;0.38;72.12
35918;BME280;22011;59.912;30.300;2022-12-29T13:02:35;101130.97;;;0.35;72.34
35918;BME280;22011;59.912;30.300;2022-12-29T13:05:16;101138.06;;;0.32;72.24
35918;BME280;22011;59.912;30.300;2022-12-29T13:07:53;101134.59;;;0.32;72.37
35918;BME280;22011;59.912;30.300;2022-12-29T13:10:39;101133.50;;;0.36;72.24
35918;BME280;22011;59.912;30.300;2022-12-29T13:16:13;101133.94;;;0.28;72.82
35918;BME280;22011;59.912;30.300;2022-12-29T13:18:52;101137.31;;;0.30;72.87
35918;BME280;22011;59.912;30.300;2022-12-29T13:21:34;101137.13;;;0.33;72.47